createdAt,value
2022-10-23T06:14:13.423Z,12.92
2022-10-23T06:16:51.858Z,12.93
2022-10-23T06:19:29.380Z,12.93
2022-10-23T06:22:09.450Z,12.98
2022-10-23T06:25:12.944Z,13.00
2022-10-23T06:27:50.109Z,12.99
2022-10-23T06:30:30.319Z,13.03
2022-10-23T06:33:07.468Z,13.05
2022-10-23T06:35:44.439Z,13.06
2022-10-23T06:38:23.388Z,13.09
2022-10-23T06:41:04.702Z,13.10
2022-10-23T06:43:46.259Z,13.12
2022-10-23T06:46:38.046Z,13.17
2022-10-23T06:49:24.548Z,13.20
2022-10-23T06:52:03.208Z,13.23
2022-10-23T06:54:40.940Z,13.24
2022-10-23T06:57:30.048Z,13.25
2022-10-23T07:00:08.374Z,13.30
2022-10-23T07:02:56.353Z,13.34
2022-10-23T07:05:33.420Z,13.37
2022-10-23T07:08:11.357Z,13.41
2022-10-23T07:10:52.098Z,13.45
2022-10-23T07:13:29.673Z,13.49
2022-10-23T07:16:23.438Z,13.53
2022-10-23T07:19:04.126Z,13.59
2022-10-23T07:21:59.978Z,13.64
2022-10-23T07:24:50.511Z,13.69
2022-10-23T07:27:31.687Z,13.76
2022-10-23T07:30:13.639Z,13.83
2022-10-23T07:32:56.698Z,13.90
2022-10-23T07:35:43.487Z,14.00
2022-10-23T07:38:24.330Z,14.04
2022-10-23T07:41:07.783Z,14.10
2022-10-23T07:43:48.535Z,14.18
2022-10-23T07:46:26.461Z,14.25
2022-10-23T07:49:05.529Z,14.27
2022-10-23T07:51:50.452Z,14.34
2022-10-23T07:54:29.670Z,14.37
2022-10-23T07:57:27.047Z,14.42
2022-10-23T08:00:18.926Z,14.46
2022-10-23T08:03:05.048Z,14.52
2022-10-23T08:05:43.896Z,14.57
2022-10-23T08:08:24.430Z,14.63
2022-10-23T08:11:04.787Z,14.67
2022-10-23T08:13:52.600Z,14.74
2022-10-23T08:16:30.683Z,14.75
2022-10-23T08:19:14.032Z,14.83
2022-10-23T08:21:54.985Z,14.86
2022-10-23T08:24:34.405Z,14.95
2022-10-23T08:27:11.373Z,15.00
2022-10-23T08:29:53.087Z,15.04
2022-10-23T08:32:33.505Z,15.09
2022-10-23T08:35:13.346Z,15.12
2022-10-23T08:37:50.371Z,15.17
2022-10-23T08:40:30.202Z,15.21
2022-10-23T08:43:33.760Z,15.26
2022-10-23T08:46:32.319Z,15.37
2022-10-23T08:49:48.772Z,15.43
2022-10-23T08:52:33.390Z,15.43
2022-10-23T08:55:23.091Z,15.50
2022-10-23T08:58:11.208Z,15.45
2022-10-23T09:00:52.919Z,15.51
2022-10-23T09:03:30.295Z,15.47
2022-10-23T09:06:19.347Z,15.50
2022-10-23T09:09:08.553Z,15.47
2022-10-23T09:11:53.281Z,15.45
2022-10-23T09:14:58.783Z,15.41
2022-10-23T09:17:39.482Z,15.30
2022-10-23T09:20:24.729Z,15.33
2022-10-23T09:23:04.985Z,15.32
2022-10-23T09:25:44.879Z,15.50
2022-10-23T09:28:25.904Z,15.57
2022-10-23T09:31:15.157Z,15.66
2022-10-23T09:34:00.077Z,15.73
2022-10-23T09:36:37.638Z,15.86
2022-10-23T09:39:27.708Z,16.28
2022-10-23T09:42:24.128Z,16.41
2022-10-23T09:45:02.216Z,16.49
2022-10-23T09:47:42.092Z,16.53
2022-10-23T09:50:24.678Z,16.54
2022-10-23T09:53:01.860Z,16.45
2022-10-23T09:55:39.238Z,16.36
2022-10-23T09:58:26.718Z,16.44
2022-10-23T10:01:04.675Z,16.35
2022-10-23T10:04:00.115Z,16.37
2022-10-23T10:06:38.231Z,16.33
2022-10-23T10:09:18.497Z,16.33
2022-10-23T10:12:00.438Z,16.28
2022-10-23T10:15:05.408Z,16.24
2022-10-23T10:17:50.948Z,16.19
2022-10-23T10:21:01.325Z,16.06
2022-10-23T10:23:50.678Z,16.02
2022-10-23T10:26:41.729Z,15.97
2022-10-23T10:29:33.761Z,15.89
2022-10-23T10:32:27.708Z,15.89
2022-10-23T10:35:26.702Z,15.87
2022-10-23T10:38:28.593Z,15.87
2022-10-23T10:41:48.189Z,15.84
2022-10-23T10:44:49.862Z,15.75
2022-10-23T10:47:34.066Z,15.63
2022-10-23T10:50:22.747Z,15.63
2022-10-23T10:53:28.927Z,15.63
2022-10-23T10:56:14.840Z,15.62
2022-10-23T10:58:56.920Z,15.61
2022-10-23T11:01:41.414Z,15.60
2022-10-23T11:04:33.105Z,15.58
2022-10-23T11:07:14.965Z,15.56
2022-10-23T11:09:55.475Z,15.51
2022-10-23T11:12:32.734Z,15.50
2022-10-23T11:15:18.515Z,15.57
2022-10-23T11:18:00.334Z,15.62
2022-10-23T11:20:57.300Z,15.69
2022-10-23T11:24:24.698Z,15.73
2022-10-23T11:27:22.003Z,15.78
2022-10-23T11:30:22.501Z,15.80
2022-10-23T11:33:42.589Z,15.78
2022-10-23T11:36:24.182Z,15.78
2022-10-23T11:39:19.282Z,15.86
2022-10-23T11:41:59.542Z,15.96
2022-10-23T11:44:50.494Z,16.13
2022-10-23T11:47:40.406Z,16.31
2022-10-23T11:50:31.802Z,16.47
2022-10-23T11:53:26.335Z,16.51
2022-10-23T11:56:07.244Z,16.77
2022-10-23T11:58:51.175Z,16.91
2022-10-23T12:01:45.947Z,17.16
2022-10-23T12:04:29.594Z,17.38
2022-10-23T12:07:19.996Z,17.54
2022-10-23T12:10:01.133Z,17.60
2022-10-23T12:12:43.757Z,17.59
2022-10-23T12:15:27.756Z,17.53
2022-10-23T12:18:20.146Z,17.51
2022-10-23T12:21:00.685Z,17.50
2022-10-23T12:24:13.754Z,17.66
2022-10-23T12:27:05.066Z,17.75
2022-10-23T12:30:17.773Z,17.77
2022-10-23T12:33:17.893Z,17.72
2022-10-23T12:36:31.822Z,17.77
2022-10-23T12:39:31.525Z,17.77
2022-10-23T12:42:14.553Z,17.85
2022-10-23T12:45:03.035Z,17.98
2022-10-23T12:47:40.748Z,18.11
2022-10-23T12:50:29.495Z,18.25
2022-10-23T12:53:10.151Z,18.32
2022-10-23T12:55:54.910Z,18.42
2022-10-23T12:58:36.097Z,18.47
2022-10-23T13:01:28.344Z,18.58
2022-10-23T13:04:20.186Z,18.74
2022-10-23T13:07:02.339Z,18.74
2022-10-23T13:09:45.094Z,18.76
2022-10-23T13:12:48.349Z,18.82
2022-10-23T13:15:27.747Z,18.73
2022-10-23T13:18:07.746Z,18.65
2022-10-23T13:20:47.608Z,18.52
2022-10-23T13:23:35.241Z,18.39
2022-10-23T13:26:34.928Z,18.41
2022-10-23T13:32:14.268Z,18.27
2022-10-23T13:35:04.118Z,18.24
2022-10-23T13:37:48.717Z,18.11
2022-10-23T13:40:31.396Z,18.07
2022-10-23T13:43:20.644Z,17.92
2022-10-23T13:45:57.627Z,17.72
2022-10-23T13:48:35.412Z,17.71
2022-10-23T13:51:18.312Z,17.63
2022-10-23T13:54:01.353Z,17.68
2022-10-23T13:56:43.751Z,17.64
2022-10-23T13:59:23.410Z,17.64
2022-10-23T14:02:01.202Z,17.60
2022-10-23T14:04:38.932Z,17.63
2022-10-23T14:07:16.022Z,17.56
2022-10-23T14:09:55.090Z,17.60
2022-10-23T14:12:35.648Z,17.65
2022-10-23T14:15:16.391Z,17.60
2022-10-23T14:17:58.935Z,17.58
2022-10-23T14:20:38.557Z,17.55
2022-10-23T14:23:20.300Z,17.43
2022-10-23T14:25:59.210Z,17.43
2022-10-23T14:28:40.808Z,17.35
2022-10-23T14:31:21.110Z,17.29
2022-10-23T14:34:02.020Z,17.22
2022-10-23T14:36:49.733Z,17.16
2022-10-23T14:39:28.161Z,17.14
2022-10-23T14:42:05.982Z,17.07
2022-10-23T14:44:47.148Z,16.94
2022-10-23T14:47:24.750Z,16.85
2022-10-23T14:50:07.016Z,16.82
2022-10-23T14:52:46.549Z,16.74
2022-10-23T14:55:27.507Z,16.68
2022-10-23T14:58:13.660Z,16.60
2022-10-23T15:01:05.808Z,16.50
2022-10-23T15:03:45.005Z,16.39
2022-10-23T15:06:26.635Z,16.28
2022-10-23T15:09:09.555Z,16.21
2022-10-23T15:11:54.512Z,16.16
2022-10-23T15:14:34.615Z,16.10
2022-10-23T15:17:15.550Z,16.01
2022-10-23T15:19:56.366Z,15.93
2022-10-23T15:22:38.892Z,15.83
2022-10-23T15:25:18.244Z,15.70
2022-10-23T15:28:00.552Z,15.49
2022-10-23T15:30:44.124Z,15.24
2022-10-23T15:33:29.014Z,15.02
2022-10-23T15:36:06.247Z,14.84
2022-10-23T15:38:52.967Z,14.71
2022-10-23T15:41:41.035Z,14.55
2022-10-23T15:44:32.477Z,14.41
2022-10-23T15:47:14.949Z,14.25
2022-10-23T15:50:03.937Z,14.12
2022-10-23T15:52:46.932Z,13.96
2022-10-23T15:55:36.077Z,13.79
2022-10-23T15:58:18.515Z,13.70
2022-10-23T16:00:56.984Z,13.61
2022-10-23T16:03:43.595Z,13.51
2022-10-23T16:06:34.656Z,13.41
2022-10-23T16:09:23.969Z,13.29
2022-10-23T16:12:06.363Z,13.18
2022-10-23T16:14:52.006Z,13.05
2022-10-23T16:17:40.158Z,13.00
2022-10-23T16:20:23.222Z,12.90
2022-10-23T16:23:05.364Z,12.81
2022-10-23T16:25:44.496Z,12.69
2022-10-23T16:28:22.972Z,12.61
2022-10-23T16:31:02.812Z,12.51
2022-10-23T16:33:40.379Z,12.46
2022-10-23T16:36:17.895Z,12.37
2022-10-23T16:39:25.896Z,12.30
2022-10-23T16:42:42.525Z,12.16
2022-10-23T16:45:25.079Z,12.05
2022-10-23T16:48:02.732Z,11.96
2022-10-23T16:50:43.230Z,11.89
2022-10-23T16:53:22.798Z,11.82
2022-10-23T16:56:03.989Z,11.77
2022-10-23T16:58:47.436Z,11.68
2022-10-23T17:01:27.534Z,11.62
2022-10-23T17:04:05.946Z,11.58
2022-10-23T17:06:44.996Z,11.51
2022-10-23T17:09:25.637Z,11.46
2022-10-23T17:12:05.664Z,11.40
2022-10-23T17:14:44.838Z,11.34
2022-10-23T17:17:23.476Z,11.27
2022-10-23T17:20:01.699Z,11.21
2022-10-23T17:22:40.357Z,11.16
2022-10-23T17:25:18.315Z,11.11
2022-10-23T17:27:58.507Z,11.07
2022-10-23T17:30:41.005Z,10.99
2022-10-23T17:33:23.396Z,10.95
2022-10-23T17:36:05.998Z,10.91
2022-10-23T17:38:45.188Z,10.83
2022-10-23T17:41:26.668Z,10.78
2022-10-23T17:44:09.117Z,10.73
2022-10-23T17:46:50.436Z,10.67
2022-10-23T17:49:28.775Z,10.64
2022-10-23T17:52:10.956Z,10.58
2022-10-23T17:54:50.745Z,10.53
2022-10-23T17:57:29.038Z,10.48
2022-10-23T18:00:13.580Z,10.48
2022-10-23T18:02:50.786Z,10.42
2022-10-23T18:05:28.472Z,10.35
2022-10-23T18:08:06.868Z,10.34
2022-10-23T18:10:44.808Z,10.31
2022-10-23T18:13:25.328Z,10.30
2022-10-23T18:16:11.641Z,10.31
2022-10-23T18:18:52.732Z,10.25
2022-10-23T18:21:31.780Z,10.22
2022-10-23T18:24:11.981Z,10.15
2022-10-23T18:26:51.139Z,10.14
2022-10-23T18:29:29.171Z,10.14
2022-10-23T18:32:18.289Z,10.18
2022-10-23T18:34:56.421Z,10.17
2022-10-23T18:37:38.983Z,10.18
2022-10-23T18:40:23.126Z,10.16
2022-10-23T18:43:07.006Z,10.17
2022-10-23T18:45:47.572Z,10.11
2022-10-23T18:48:28.089Z,10.08
2022-10-23T18:51:05.801Z,10.07
2022-10-23T18:53:43.789Z,10.08
2022-10-23T18:56:25.251Z,10.07
2022-10-23T19:02:16.287Z,10.06
2022-10-23T19:05:01.248Z,10.07
2022-10-23T19:07:39.698Z,10.06
2022-10-23T19:10:23.619Z,10.04
2022-10-23T19:13:07.384Z,10.05
2022-10-23T19:15:46.141Z,10.04
2022-10-23T19:18:25.822Z,10.06
2022-10-23T19:21:07.184Z,10.05
2022-10-23T19:23:47.032Z,10.01
2022-10-23T19:26:26.998Z,9.99
2022-10-23T19:29:06.215Z,9.99
2022-10-23T19:31:50.359Z,9.94
2022-10-23T19:34:28.533Z,9.92
2022-10-23T19:37:09.460Z,9.90
2022-10-23T19:39:48.913Z,9.86
2022-10-23T19:42:27.401Z,9.86
2022-10-23T19:45:05.381Z,9.83
2022-10-23T19:47:47.025Z,9.83
2022-10-23T19:50:30.587Z,9.83
2022-10-23T19:53:11.291Z,9.88
2022-10-23T19:55:49.155Z,9.84
2022-10-23T19:58:27.423Z,9.84
2022-10-23T22:20:33.274Z,10.97
2022-10-23T22:23:10.422Z,10.99
2022-10-23T22:25:47.091Z,11.02
2022-10-23T22:28:24.201Z,11.07
2022-10-23T22:31:00.872Z,11.11
2022-10-23T22:33:37.943Z,11.15
